Time;durP1;ratioP1;P1;durP2;ratioP2;P2;SDS_P1;SDS_P2;PMS_P1;PMS_P2;Temp;Humidity;BMP_temperature;BMP_pressure;BME280_temperature;BME280_humidity;BME280_pressure;Samples;Min_cycle;Max_cycle;Signal;HPM_P1;HPM_P2
2021/07/14 00:00:49;;;;;;;0.40;0.30;;;19.70;99.90;;;;;;5038808;28;20438;-79
2021/07/14 00:03:17;;;;;;;0.40;0.30;;;19.70;99.90;;;;;;5037791;28;20454;-79
2021/07/14 00:05:43;;;;;;;0.40;0.30;;;19.70;99.90;;;;;;5037539;28;21039;-79
2021/07/14 00:08:10;;;;;;;0.50;0.40;;;19.70;99.90;;;;;;5036734;28;20459;-75
2021/07/14 00:10:37;;;;;;;0.40;0.30;;;19.70;99.90;;;;;;5037926;28;20431;-78
2021/07/14 00:13:11;;;;;;;0.40;0.30;;;19.70;99.90;;;;;;5036358;28;20446;-78
2021/07/14 00:23:53;;;;;;;0.57;0.57;;;19.60;99.90;;;;;;5038628;28;20461;-78
2021/07/14 00:26:20;;;;;;;0.40;0.30;;;19.60;99.90;;;;;;5036259;28;20454;-79
2021/07/14 00:28:49;;;;;;;0.50;0.50;;;19.60;99.90;;;;;;5036586;28;20449;-79
2021/07/14 00:31:16;;;;;;;0.50;0.30;;;19.60;99.90;;;;;;5036563;28;20443;-78
2021/07/14 00:33:45;;;;;;;0.40;0.30;;;19.60;99.90;;;;;;5036175;28;20449;-79
2021/07/14 00:36:13;;;;;;;0.80;0.80;;;19.50;99.90;;;;;;5036443;28;20508;-79
2021/07/14 00:38:40;;;;;;;0.60;0.60;;;19.50;99.90;;;;;;5039022;28;20478;-79
2021/07/14 00:41:08;;;;;;;0.40;0.30;;;19.50;99.90;;;;;;5041088;28;20443;-78
2021/07/14 00:43:35;;;;;;;0.40;0.30;;;19.60;99.90;;;;;;5041519;28;20450;-80
2021/07/14 00:46:18;;;;;;;0.50;0.30;;;19.60;99.90;;;;;;5026623;28;20466;-79
2021/07/14 00:48:48;;;;;;;0.40;0.30;;;19.50;99.90;;;;;;5032249;28;20426;-79
2021/07/14 00:51:15;;;;;;;0.40;0.30;;;19.50;99.90;;;;;;5041577;28;20445;-77
2021/07/14 00:53:42;;;;;;;0.80;0.80;;;19.60;99.90;;;;;;5046013;28;20438;-79
2021/07/14 00:56:09;;;;;;;0.50;0.30;;;19.60;99.90;;;;;;5045108;28;20641;-77
2021/07/14 00:58:35;;;;;;;0.47;0.30;;;19.60;99.90;;;;;;5046208;28;20477;-80
2021/07/14 01:01:03;;;;;;;0.40;0.30;;;19.60;99.90;;;;;;5045081;28;20439;-79
2021/07/14 01:03:32;;;;;;;0.40;0.30;;;19.60;99.90;;;;;;5045418;28;20434;-79
2021/07/14 03:03:57;;;;;;;1.70;1.23;;;19.20;99.90;;;;;;5015589;28;20899;-79
2021/07/14 03:06:24;;;;;;;0.40;0.30;;;19.20;99.90;;;;;;5017998;28;20463;-79
2021/07/14 03:08:51;;;;;;;0.40;0.30;;;19.20;99.90;;;;;;5019720;28;20953;-79
2021/07/14 03:11:19;;;;;;;0.40;0.30;;;19.20;99.90;;;;;;5018621;28;20467;-79
2021/07/14 03:13:47;;;;;;;0.40;0.30;;;19.20;99.90;;;;;;5013035;28;20437;-78
2021/07/14 03:16:14;;;;;;;0.40;0.30;;;19.20;99.90;;;;;;5020592;28;20591;-80
2021/07/14 03:18:46;;;;;;;0.40;0.40;;;19.20;99.90;;;;;;5024564;28;21010;-78
2021/07/14 03:21:15;;;;;;;0.40;0.30;;;19.20;99.90;;;;;;5013987;28;20449;-78
2021/07/14 03:23:43;;;;;;;0.40;0.30;;;19.20;99.90;;;;;;5014278;28;20450;-78
2021/07/14 03:26:10;;;;;;;0.50;0.30;;;19.20;99.90;;;;;;5012881;28;20824;-74
2021/07/14 03:28:40;;;;;;;2.67;2.47;;;19.20;99.90;;;;;;5017435;28;20446;-78
2021/07/14 03:31:08;;;;;;;1.37;1.27;;;19.20;99.90;;;;;;5024397;28;20439;-78
2021/07/14 03:33:35;;;;;;;1.17;1.07;;;19.20;99.90;;;;;;5032762;28;20439;-77
2021/07/14 03:36:05;;;;;;;0.40;0.30;;;19.20;99.90;;;;;;5033039;28;20867;-77
2021/07/14 03:38:34;;;;;;;0.40;0.40;;;19.20;99.90;;;;;;5033027;28;20446;-79
2021/07/14 03:41:02;;;;;;;0.40;0.30;;;19.20;99.90;;;;;;5033299;28;20438;-78
2021/07/14 03:43:30;;;;;;;0.97;0.77;;;19.20;99.90;;;;;;5033190;28;20443;-78
2021/07/14 03:45:59;;;;;;;1.83;1.73;;;19.20;99.90;;;;;;5032292;28;20471;-77
2021/07/14 03:48:29;;;;;;;0.40;0.30;;;19.20;99.90;;;;;;5017455;28;20852;-78
2021/07/14 03:50:56;;;;;;;0.40;0.30;;;19.20;99.90;;;;;;5013535;28;20439;-78
2021/07/14 03:53:24;;;;;;;0.43;0.40;;;19.20;99.90;;;;;;5013447;28;20457;-78
2021/07/14 03:55:54;;;;;;;0.40;0.30;;;19.20;99.90;;;;;;5013851;28;20583;-78
2021/07/14 03:58:24;;;;;;;0.50;0.50;;;19.20;99.90;;;;;;5014260;28;20940;-78
2021/07/14 04:00:51;;;;;;;0.53;0.53;;;19.20;99.90;;;;;;5013447;28;20478;-78
2021/07/14 04:03:21;;;;;;;1.90;1.43;;;19.20;99.90;;;;;;5013527;28;20443;-78
2021/07/14 04:05:53;;;;;;;0.40;0.30;;;19.20;99.90;;;;;;5013682;28;20498;-78
2021/07/14 04:08:23;;;;;;;0.50;0.50;;;19.20;99.90;;;;;;5014194;28;20478;-78
2021/07/14 04:10:51;;;;;;;4.53;3.57;;;19.20;99.90;;;;;;5013797;28;20443;-78
2021/07/14 04:13:18;;;;;;;0.50;0.40;;;19.20;99.90;;;;;;5013433;28;20451;-78
2021/07/14 04:15:45;;;;;;;0.40;0.30;;;19.20;99.90;;;;;;5017628;28;20544;-78
2021/07/14 04:18:12;;;;;;;0.40;0.30;;;19.10;99.90;;;;;;5025018;28;20445;-78
2021/07/14 04:20:39;;;;;;;0.40;0.30;;;19.10;99.90;;;;;;5033121;28;20478;-78
2021/07/14 04:23:07;;;;;;;0.40;0.30;;;19.20;99.90;;;;;;5033301;28;20466;-77
2021/07/14 04:25:33;;;;;;;0.40;0.30;;;19.10;99.90;;;;;;5033032;28;20464;-78
2021/07/14 04:28:01;;;;;;;1.77;1.67;;;19.10;99.90;;;;;;5033058;28;20434;-78
2021/07/14 04:30:28;;;;;;;0.40;0.30;;;19.10;99.90;;;;;;5025777;28;20870;-77
2021/07/14 04:32:55;;;;;;;0.40;0.30;;;19.20;99.90;;;;;;5012847;28;20443;-77
2021/07/14 04:35:22;;;;;;;2.53;1.77;;;19.20;99.90;;;;;;5013757;28;20461;-78
2021/07/14 04:37:49;;;;;;;0.40;0.40;;;19.20;99.90;;;;;;5013347;28;20443;-78
2021/07/14 04:40:17;;;;;;;0.40;0.30;;;19.20;99.90;;;;;;5013143;28;20521;-76
2021/07/14 04:42:44;;;;;;;0.50;0.47;;;19.20;99.90;;;;;;5015631;28;20559;-78
2021/07/14 04:45:12;;;;;;;0.70;0.70;;;19.20;99.90;;;;;;5019302;28;20789;-77
2021/07/14 04:47:39;;;;;;;2.10;1.60;;;19.20;99.90;;;;;;5022848;28;20448;-77
2021/07/14 04:50:07;;;;;;;2.87;2.40;;;19.20;99.90;;;;;;5032425;28;20445;-77
2021/07/14 04:52:34;;;;;;;0.40;0.30;;;19.20;99.90;;;;;;5031885;28;20507;-76
2021/07/14 04:55:00;;;;;;;0.40;0.30;;;19.20;99.90;;;;;;5031901;28;20443;-78
2021/07/14 04:57:27;;;;;;;0.50;0.30;;;19.20;99.90;;;;;;5031807;28;20466;-78
2021/07/14 04:59:54;;;;;;;1.73;1.63;;;19.20;99.90;;;;;;5032414;28;20481;-77
2021/07/14 05:02:22;;;;;;;0.40;0.30;;;19.20;99.90;;;;;;5031435;28;20445;-77
2021/07/14 05:04:49;;;;;;;1.23;1.23;;;19.20;99.90;;;;;;5032087;28;20847;-79
2021/07/14 05:07:16;;;;;;;1.43;1.33;;;19.20;99.90;;;;;;5032152;28;20473;-77
2021/07/14 05:09:42;;;;;;;0.40;0.30;;;19.20;99.90;;;;;;5032572;28;20441;-78
2021/07/14 05:12:09;;;;;;;0.40;0.30;;;19.20;99.90;;;;;;5032885;28;20446;-78
2021/07/14 05:14:36;;;;;;;0.40;0.30;;;19.20;99.90;;;;;;5032567;28;20465;-79
2021/07/14 05:17:02;;;;;;;0.40;0.30;;;19.20;99.90;;;;;;5028483;28;20467;-78
2021/07/14 05:19:31;;;;;;;0.50;0.40;;;19.20;99.90;;;;;;5027849;28;20474;-78
2021/07/14 05:21:57;;;;;;;0.40;0.30;;;19.20;99.90;;;;;;5033327;28;20440;-78
2021/07/14 05:24:24;;;;;;;0.40;0.30;;;19.30;99.90;;;;;;5033234;28;20442;-77
2021/07/14 05:26:51;;;;;;;0.40;0.30;;;19.20;99.90;;;;;;5036018;28;20458;-79
2021/07/14 05:29:18;;;;;;;1.00;1.00;;;19.20;99.90;;;;;;5035928;28;20442;-79
2021/07/14 05:31:44;;;;;;;0.47;0.40;;;19.20;99.90;;;;;;5026979;28;20435;-79
2021/07/14 05:34:11;;;;;;;0.40;0.30;;;19.20;99.90;;;;;;5016870;28;20975;-80
2021/07/14 05:36:39;;;;;;;0.40;0.30;;;19.20;99.90;;;;;;5027261;28;20968;-79
2021/07/14 05:39:06;;;;;;;0.50;0.30;;;19.20;99.90;;;;;;5036102;28;20446;-78
2021/07/14 05:41:33;;;;;;;0.40;0.30;;;19.20;99.90;;;;;;5036053;28;20450;-79
2021/07/14 05:43:59;;;;;;;0.40;0.30;;;19.30;99.90;;;;;;5036051;28;20446;-80
2021/07/14 05:46:26;;;;;;;0.40;0.30;;;19.30;99.90;;;;;;5034339;28;20967;-79
2021/07/14 05:48:53;;;;;;;0.40;0.30;;;19.30;99.90;;;;;;5027263;28;20431;-79
2021/07/14 05:51:19;;;;;;;0.40;0.30;;;19.30;99.90;;;;;;5037517;28;20453;-78
2021/07/14 05:53:47;;;;;;;2.13;1.93;;;19.30;99.90;;;;;;5037702;28;20469;-80
2021/07/14 05:56:14;;;;;;;0.40;0.30;;;19.30;99.90;;;;;;5037751;28;20458;-79
2021/07/14 05:58:41;;;;;;;0.40;0.30;;;19.30;99.90;;;;;;5038870;28;20447;-78
2021/07/14 06:01:09;;;;;;;0.40;0.40;;;19.30;99.90;;;;;;5038476;28;20481;-78
2021/07/14 06:03:36;;;;;;;0.40;0.30;;;19.40;99.90;;;;;;5038748;28;20442;-77
2021/07/14 06:06:03;;;;;;;0.40;0.30;;;19.40;99.90;;;;;;5037695;28;20490;-77
2021/07/14 06:08:29;;;;;;;0.40;0.40;;;19.40;99.90;;;;;;5037755;28;20445;-78
2021/07/14 06:10:57;;;;;;;1.03;0.70;;;19.40;99.90;;;;;;5037842;28;20438;-77
2021/07/14 06:13:24;;;;;;;0.50;0.50;;;19.40;99.90;;;;;;5038818;28;20447;-78
2021/07/14 06:15:51;;;;;;;0.40;0.30;;;19.40;99.90;;;;;;5037383;28;20470;-77
2021/07/14 06:18:17;;;;;;;0.40;0.30;;;19.50;99.90;;;;;;5032948;28;20436;-77
2021/07/14 06:20:44;;;;;;;1.37;1.37;;;19.50;99.90;;;;;;5020692;28;20459;-78
2021/07/14 06:23:11;;;;;;;0.40;0.33;;;19.40;99.90;;;;;;5017149;28;20441;-77
2021/07/14 06:25:38;;;;;;;0.40;0.30;;;19.40;99.90;;;;;;5017644;28;20458;-77
2021/07/14 06:28:07;;;;;;;0.40;0.30;;;19.40;99.90;;;;;;5017064;28;20443;-78
2021/07/14 06:30:34;;;;;;;0.40;0.40;;;19.40;99.90;;;;;;5029082;28;20537;-77
2021/07/14 06:33:02;;;;;;;0.60;0.50;;;19.40;99.90;;;;;;5018870;28;20439;-78
2021/07/14 06:35:29;;;;;;;0.40;0.30;;;19.40;99.90;;;;;;5018737;28;20444;-77
2021/07/14 06:37:56;;;;;;;0.40;0.30;;;19.40;99.90;;;;;;5020022;28;20567;-78
2021/07/14 06:40:22;;;;;;;1.83;1.60;;;19.40;99.90;;;;;;5018120;28;20475;-77
2021/07/14 06:42:49;;;;;;;0.40;0.30;;;19.40;99.90;;;;;;5015511;28;20466;-78
2021/07/14 06:45:18;;;;;;;0.40;0.30;;;19.30;99.90;;;;;;5013732;28;20494;-78
2021/07/14 06:47:45;;;;;;;0.40;0.30;;;19.30;99.90;;;;;;5022922;28;20431;-78
2021/07/14 06:50:13;;;;;;;0.40;0.40;;;19.30;99.90;;;;;;5033621;28;20927;-77
2021/07/14 06:52:41;;;;;;;0.60;0.57;;;19.40;99.90;;;;;;5034998;28;20427;-79
2021/07/14 06:55:09;;;;;;;0.50;0.43;;;19.40;99.90;;;;;;5035060;28;20443;-77
2021/07/14 06:57:36;;;;;;;0.40;0.30;;;19.40;99.90;;;;;;5035842;28;20514;-78
2021/07/14 07:00:05;;;;;;;1.10;0.83;;;19.40;99.90;;;;;;5034997;28;20477;-79
2021/07/14 07:02:33;;;;;;;0.40;0.30;;;19.40;99.90;;;;;;5034812;28;20430;-78
2021/07/14 07:05:00;;;;;;;0.40;0.30;;;19.40;99.90;;;;;;5034396;28;20446;-77
2021/07/14 07:07:27;;;;;;;0.40;0.30;;;19.40;99.90;;;;;;5033162;28;20467;-77
2021/07/14 07:09:53;;;;;;;0.40;0.30;;;19.40;99.90;;;;;;5034258;28;20494;-78
2021/07/14 07:12:20;;;;;;;0.40;0.30;;;19.40;99.90;;;;;;5033632;28;20799;-76
2021/07/14 07:14:47;;;;;;;0.40;0.30;;;19.30;99.90;;;;;;5033088;28;20447;-77
2021/07/14 07:17:15;;;;;;;0.40;0.30;;;19.40;99.90;;;;;;5027576;28;20467;-77
2021/07/14 07:19:43;;;;;;;0.40;0.40;;;19.40;99.90;;;;;;5029533;28;20446;-77
2021/07/14 07:22:09;;;;;;;0.40;0.30;;;19.40;99.90;;;;;;5033506;28;20449;-77
2021/07/14 07:24:36;;;;;;;0.40;0.30;;;19.40;99.90;;;;;;5033122;28;20438;-77
2021/07/14 07:27:04;;;;;;;0.40;0.33;;;19.40;99.90;;;;;;5032618;28;20529;-77
2021/07/14 07:29:31;;;;;;;0.40;0.30;;;19.40;99.90;;;;;;5033935;28;20851;-78
2021/07/14 07:31:57;;;;;;;0.40;0.30;;;19.40;99.90;;;;;;5033253;28;20473;-77
2021/07/14 07:34:24;;;;;;;0.40;0.30;;;19.40;99.90;;;;;;5032594;28;20445;-76
2021/07/14 07:36:52;;;;;;;1.07;0.67;;;19.40;99.90;;;;;;5033179;28;20466;-78
2021/07/14 07:39:20;;;;;;;0.40;0.30;;;19.40;99.90;;;;;;5033409;28;20484;-79
2021/07/14 07:41:47;;;;;;;0.40;0.30;;;19.40;99.90;;;;;;5033281;28;20478;-77
2021/07/14 07:44:14;;;;;;;1.33;1.33;;;19.40;99.90;;;;;;5033298;28;20493;-78
2021/07/14 07:46:42;;;;;;;0.80;0.80;;;19.30;99.90;;;;;;5032703;28;20498;-78
2021/07/14 07:49:09;;;;;;;0.40;0.40;;;19.30;99.90;;;;;;5020351;28;20444;-77
2021/07/14 07:51:36;;;;;;;0.40;0.30;;;19.30;99.90;;;;;;5023200;28;20792;-78
2021/07/14 07:54:04;;;;;;;0.40;0.30;;;19.30;99.90;;;;;;5032803;28;20438;-77
2021/07/14 07:56:33;;;;;;;0.40;0.30;;;19.20;99.90;;;;;;5031792;28;20874;-78
2021/07/14 07:59:01;;;;;;;0.40;0.40;;;19.20;99.90;;;;;;5032135;28;20443;-77
2021/07/14 08:01:27;;;;;;;0.40;0.30;;;19.20;99.90;;;;;;5031881;28;20478;-77
2021/07/14 08:03:54;;;;;;;0.40;0.30;;;19.20;99.90;;;;;;5031932;28;20449;-78
2021/07/14 08:06:21;;;;;;;0.80;0.80;;;19.20;99.90;;;;;;5031852;28;20454;-78
2021/07/14 08:08:48;;;;;;;0.40;0.30;;;19.20;99.90;;;;;;5021898;28;20440;-77
2021/07/14 08:11:16;;;;;;;0.40;0.30;;;19.20;99.90;;;;;;5021801;28;20454;-78
2021/07/14 08:13:42;;;;;;;0.40;0.30;;;19.20;99.90;;;;;;5030583;28;20470;-78
2021/07/14 08:16:09;;;;;;;0.40;0.30;;;19.20;99.90;;;;;;5030569;28;20481;-77
2021/07/14 08:18:36;;;;;;;0.40;0.40;;;19.30;99.90;;;;;;5023734;28;20439;-77
2021/07/14 08:21:03;;;;;;;0.40;0.40;;;19.30;99.90;;;;;;5031709;28;20485;-77
2021/07/14 08:23:30;;;;;;;0.73;0.73;;;19.20;99.90;;;;;;5032487;28;20807;-78
2021/07/14 08:25:56;;;;;;;0.40;0.30;;;19.30;99.90;;;;;;5031603;28;20463;-78
2021/07/14 08:28:24;;;;;;;0.40;0.30;;;19.20;99.90;;;;;;5032004;28;20451;-77
2021/07/14 08:30:51;;;;;;;0.40;0.30;;;19.20;99.90;;;;;;5032039;28;20443;-77
2021/07/14 08:33:18;;;;;;;0.40;0.30;;;19.30;99.90;;;;;;5031320;28;20442;-77
2021/07/14 08:35:45;;;;;;;0.40;0.30;;;19.30;99.90;;;;;;5031848;28;20467;-77
2021/07/14 08:38:12;;;;;;;0.40;0.30;;;19.40;99.90;;;;;;5031865;28;20935;-76
2021/07/14 08:40:40;;;;;;;0.40;0.30;;;19.40;99.90;;;;;;5031842;28;20481;-78
2021/07/14 08:43:09;;;;;;;0.60;0.60;;;19.40;99.90;;;;;;5031769;28;20879;-77
2021/07/14 08:45:38;;;;;;;0.40;0.30;;;19.40;99.90;;;;;;5030965;28;20463;-77
2021/07/14 08:48:06;;;;;;;0.40;0.30;;;19.40;99.90;;;;;;5020065;28;20459;-78
2021/07/14 08:50:33;;;;;;;0.40;0.30;;;19.40;99.90;;;;;;5012410;28;20435;-77
2021/07/14 08:53:00;;;;;;;0.40;0.30;;;19.40;99.90;;;;;;5012377;28;20543;-76
2021/07/14 08:55:27;;;;;;;0.50;0.50;;;19.40;99.90;;;;;;5012322;28;20443;-77
2021/07/14 08:57:53;;;;;;;0.60;0.50;;;19.50;99.90;;;;;;5011932;28;20459;-78
2021/07/14 09:00:23;;;;;;;0.43;0.40;;;19.40;99.90;;;;;;5013377;28;20444;-77
2021/07/14 09:02:51;;;;;;;0.57;0.57;;;19.40;99.90;;;;;;5015812;28;20443;-78
2021/07/14 09:05:18;;;;;;;0.50;0.47;;;19.40;99.90;;;;;;5015355;28;20852;-77
2021/07/14 09:07:45;;;;;;;0.40;0.30;;;19.30;99.90;;;;;;5015868;28;20466;-78
2021/07/14 09:10:13;;;;;;;0.80;0.80;;;19.40;99.90;;;;;;5015718;28;20866;-78
2021/07/14 09:12:42;;;;;;;1.53;0.53;;;19.40;99.90;;;;;;5015980;28;20436;-77
2021/07/14 09:15:11;;;;;;;0.40;0.30;;;19.30;99.90;;;;;;5015886;28;20778;-79
2021/07/14 09:17:45;;;;;;;3.90;0.73;;;19.30;99.90;;;;;;5026131;28;20439;-78
2021/07/14 09:20:15;;;;;;;0.40;0.30;;;19.30;99.90;;;;;;5035298;28;20434;-77
2021/07/14 09:22:42;;;;;;;1.07;1.07;;;19.20;99.90;;;;;;5035617;28;20438;-77
2021/07/14 09:25:12;;;;;;;1.63;1.63;;;19.20;99.90;;;;;;5035121;28;20808;-78
2021/07/14 09:27:48;;;;;;;0.40;0.30;;;19.20;99.90;;;;;;5035000;28;20426;-78
2021/07/14 09:30:16;;;;;;;1.83;1.73;;;19.20;99.90;;;;;;5035555;28;20426;-77
2021/07/14 09:32:45;;;;;;;0.80;0.80;;;19.30;99.90;;;;;;5035266;28;20435;-77
2021/07/14 09:35:22;;;;;;;0.40;0.30;;;19.20;99.90;;;;;;5034569;28;20453;-75
2021/07/14 09:37:49;;;;;;;0.40;0.30;;;19.20;99.90;;;;;;5034875;28;20442;-78
2021/07/14 09:40:17;;;;;;;0.40;0.30;;;19.30;99.90;;;;;;5034800;28;20447;-78
2021/07/14 09:42:51;;;;;;;3.07;2.83;;;19.40;99.90;;;;;;5034853;28;20442;-77
2021/07/14 09:45:37;;;;;;;0.40;0.40;;;19.40;99.90;;;;;;5034375;28;20441;-77
2021/07/14 09:48:05;;;;;;;0.40;0.30;;;19.30;99.90;;;;;;5022790;28;20423;-76
2021/07/14 09:50:34;;;;;;;0.40;0.30;;;19.40;99.90;;;;;;5014804;28;20443;-77
2021/07/14 09:53:02;;;;;;;0.40;0.37;;;19.40;99.90;;;;;;5014385;28;20435;-77
2021/07/14 09:55:30;;;;;;;1.27;1.27;;;19.40;99.90;;;;;;5015326;28;20435;-77
2021/07/14 09:58:10;;;;;;;0.40;0.40;;;19.40;99.90;;;;;;5014266;28;20463;-76
2021/07/14 10:00:45;;;;;;;4.10;2.00;;;19.40;99.90;;;;;;5014286;28;20451;-76
2021/07/14 10:03:28;;;;;;;0.40;0.30;;;19.40;99.90;;;;;;5013875;28;20565;-76
2021/07/14 10:06:17;;;;;;;0.50;0.30;;;19.30;99.90;;;;;;5014632;28;20474;-75
2021/07/14 10:08:45;;;;;;;0.40;0.30;;;19.30;99.90;;;;;;5013750;28;20450;-77
2021/07/14 10:11:19;;;;;;;0.40;0.30;;;19.30;99.90;;;;;;5013640;28;20436;-77
2021/07/14 10:13:54;;;;;;;0.40;0.30;;;19.40;99.90;;;;;;5014636;28;20419;-76
2021/07/14 10:16:23;;;;;;;0.40;0.30;;;19.40;99.90;;;;;;5027354;28;20469;-76
2021/07/14 10:18:58;;;;;;;0.40;0.30;;;19.50;99.90;;;;;;5026116;28;20450;-77
2021/07/14 10:21:26;;;;;;;0.40;0.30;;;19.50;99.90;;;;;;5033980;28;20878;-77
2021/07/14 10:23:54;;;;;;;0.40;0.30;;;19.50;99.90;;;;;;5033941;28;20443;-78
2021/07/14 10:26:20;;;;;;;0.40;0.40;;;19.60;99.90;;;;;;5033732;28;20459;-76
2021/07/14 10:28:49;;;;;;;0.40;0.30;;;19.60;99.90;;;;;;5034001;28;20434;-76
2021/07/14 10:31:17;;;;;;;0.40;0.30;;;19.60;99.90;;;;;;5034172;28;20446;-77
2021/07/14 10:33:44;;;;;;;0.50;0.30;;;19.60;99.90;;;;;;5033198;28;20447;-77
2021/07/14 10:36:14;;;;;;;0.40;0.30;;;19.60;99.90;;;;;;5033280;28;21009;-78
2021/07/14 10:38:49;;;;;;;0.53;0.53;;;19.60;99.90;;;;;;5033650;28;20446;-77
2021/07/14 10:41:16;;;;;;;1.83;1.37;;;19.60;99.90;;;;;;5033279;28;21005;-77
2021/07/14 10:43:47;;;;;;;4.43;0.73;;;19.60;99.90;;;;;;5033458;28;20483;-76
2021/07/14 10:46:14;;;;;;;0.40;0.40;;;19.50;99.90;;;;;;5032402;28;20469;-74
2021/07/14 10:48:42;;;;;;;0.97;0.97;;;19.50;99.90;;;;;;5024937;28;20435;-77
2021/07/14 10:51:09;;;;;;;1.50;1.50;;;19.50;99.90;;;;;;5033906;28;20443;-78
2021/07/14 10:53:39;;;;;;;0.40;0.30;;;19.60;99.90;;;;;;5033463;28;20966;-78
2021/07/14 10:56:07;;;;;;;0.40;0.40;;;19.60;99.90;;;;;;5032405;28;20458;-77
2021/07/14 10:58:35;;;;;;;0.40;0.30;;;19.50;99.90;;;;;;5033639;28;20458;-77
2021/07/14 11:01:03;;;;;;;0.40;0.30;;;19.50;99.90;;;;;;5032962;28;20561;-77
2021/07/14 11:03:44;;;;;;;7.63;3.40;;;19.50;99.90;;;;;;5032916;28;20450;-77
2021/07/14 11:06:11;;;;;;;2.80;0.80;;;19.50;99.90;;;;;;5032892;28;20558;-78
2021/07/14 11:08:39;;;;;;;0.57;0.40;;;19.50;99.90;;;;;;5033288;28;20808;-77
2021/07/14 11:11:08;;;;;;;0.40;0.30;;;19.50;99.90;;;;;;5032871;28;20549;-76
2021/07/14 11:13:37;;;;;;;1.00;1.00;;;19.50;99.90;;;;;;5032815;28;20450;-77
2021/07/14 11:16:32;;;;;;;0.40;0.30;;;19.40;99.90;;;;;;5032194;28;20566;-74
2021/07/14 11:19:01;;;;;;;0.40;0.30;;;19.40;99.90;;;;;;5024106;28;20538;-77
2021/07/14 11:21:50;;;;;;;0.40;0.30;;;19.50;99.90;;;;;;5032673;28;20474;-76
2021/07/14 11:24:55;;;;;;;0.40;0.30;;;19.60;99.90;;;;;;5031857;28;20492;-77
2021/07/14 11:27:58;;;;;;;0.40;0.30;;;19.60;99.90;;;;;;5032442;28;20462;-77
2021/07/14 11:30:39;;;;;;;0.40;0.30;;;19.60;99.90;;;;;;5032503;28;20441;-76
2021/07/14 11:33:07;;;;;;;0.40;0.30;;;19.60;99.90;;;;;;5032599;28;20415;-77
2021/07/14 11:35:44;;;;;;;0.53;0.53;;;19.60;99.90;;;;;;5032172;28;20508;-77
2021/07/14 11:38:33;;;;;;;1.87;1.60;;;19.60;99.90;;;;;;5032188;28;20484;-77
2021/07/14 11:41:02;;;;;;;0.50;0.30;;;19.70;99.90;;;;;;5033838;28;20419;-76
2021/07/14 11:43:43;;;;;;;0.40;0.30;;;19.60;99.90;;;;;;5032233;28;20453;-77
2021/07/14 11:46:12;;;;;;;2.47;2.37;;;19.50;99.90;;;;;;5031480;28;20463;-78
2021/07/14 11:48:41;;;;;;;4.57;2.20;;;19.50;99.90;;;;;;5023870;28;20482;-78
2021/07/14 11:51:19;;;;;;;7.50;5.40;;;19.50;99.90;;;;;;5032462;28;20435;-78
2021/07/14 11:53:47;;;;;;;0.40;0.30;;;19.60;99.90;;;;;;5032201;28;20450;-78
2021/07/14 11:56:21;;;;;;;0.40;0.30;;;19.50;99.90;;;;;;5031471;28;20806;-73
2021/07/14 11:59:09;;;;;;;0.40;0.30;;;19.60;99.90;;;;;;5031866;28;20485;-77
2021/07/14 12:02:07;;;;;;;0.40;0.30;;;19.70;99.90;;;;;;5032235;28;20481;-77
2021/07/14 12:05:05;;;;;;;2.00;1.90;;;19.70;99.90;;;;;;5031906;28;20434;-77
2021/07/14 12:07:39;;;;;;;0.40;0.30;;;19.80;99.90;;;;;;5031797;28;21198;-76
2021/07/14 12:10:15;;;;;;;0.40;0.30;;;19.90;99.90;;;;;;5032147;28;20453;-77
2021/07/14 12:12:47;;;;;;;0.40;0.30;;;20.00;99.90;;;;;;5032042;28;20442;-77
2021/07/14 12:15:15;;;;;;;0.50;0.50;;;20.00;99.90;;;;;;5031785;28;20462;-76
2021/07/14 12:17:42;;;;;;;0.40;0.30;;;20.10;99.90;;;;;;5022874;28;20452;-78
2021/07/14 12:20:09;;;;;;;5.70;3.07;;;20.20;99.90;;;;;;5031716;28;20443;-77
2021/07/14 12:22:36;;;;;;;0.50;0.30;;;20.30;99.90;;;;;;5031956;28;20487;-78
2021/07/14 12:25:09;;;;;;;1.47;0.63;;;20.40;99.90;;;;;;5031473;28;20444;-77
2021/07/14 12:27:39;;;;;;;0.40;0.30;;;20.40;99.90;;;;;;5031964;28;20470;-78
2021/07/14 12:30:08;;;;;;;0.40;0.30;;;20.50;99.90;;;;;;5031534;28;20794;-77
2021/07/14 12:32:39;;;;;;;0.50;0.30;;;20.60;99.90;;;;;;5032323;28;20440;-77
2021/07/14 12:35:13;;;;;;;3.17;2.97;;;20.60;99.90;;;;;;5034056;28;20447;-77
2021/07/14 12:37:46;;;;;;;0.40;0.30;;;20.70;99.90;;;;;;5035149;28;20471;-76
2021/07/14 12:40:21;;;;;;;0.97;0.97;;;20.70;99.90;;;;;;5035689;28;20444;-77
2021/07/14 12:42:48;;;;;;;5.57;3.70;;;20.70;99.90;;;;;;5036118;28;20464;-77
2021/07/14 12:45:22;;;;;;;1.57;1.50;;;20.70;99.90;;;;;;5035048;28;20447;-76
2021/07/14 12:47:50;;;;;;;1.57;1.27;;;20.70;99.90;;;;;;5025275;28;20436;-77
2021/07/14 12:50:20;;;;;;;0.40;0.30;;;20.70;99.90;;;;;;5034929;28;20439;-77
2021/07/14 12:52:50;;;;;;;7.03;2.53;;;20.70;99.90;;;;;;5035287;28;20436;-77
2021/07/14 12:55:19;;;;;;;0.63;0.63;;;20.90;99.90;;;;;;5035067;28;20861;-78
2021/07/14 12:57:45;;;;;;;1.73;1.63;;;20.90;99.90;;;;;;5034870;28;20518;-77
2021/07/14 13:00:13;;;;;;;2.10;1.07;;;21.10;99.90;;;;;;5035224;28;20445;-78
2021/07/14 13:02:42;;;;;;;0.40;0.40;;;21.10;99.90;;;;;;5035298;28;20818;-78
2021/07/14 13:05:14;;;;;;;0.40;0.30;;;21.20;99.90;;;;;;5034398;28;20444;-77
2021/07/14 13:07:45;;;;;;;0.40;0.30;;;21.30;99.90;;;;;;5035157;28;20440;-76
2021/07/14 13:10:13;;;;;;;0.40;0.30;;;21.30;99.90;;;;;;5035096;28;20446;-77
2021/07/14 13:12:40;;;;;;;0.40;0.30;;;21.40;99.90;;;;;;5034986;28;20809;-77
2021/07/14 13:15:09;;;;;;;0.70;0.70;;;21.40;99.90;;;;;;5035088;28;20456;-77
2021/07/14 13:17:37;;;;;;;7.47;3.00;;;21.40;99.90;;;;;;5026102;28;20490;-78
2021/07/14 13:20:08;;;;;;;0.70;0.70;;;21.40;99.90;;;;;;5014859;28;20440;-76
2021/07/14 13:22:37;;;;;;;1.00;0.97;;;21.30;99.90;;;;;;5015434;28;20476;-76
2021/07/14 13:25:10;;;;;;;0.40;0.30;;;21.30;99.90;;;;;;5016420;28;20436;-78
2021/07/14 13:27:38;;;;;;;2.00;1.60;;;21.30;99.90;;;;;;5017463;28;20451;-77
2021/07/14 13:30:23;;;;;;;10.37;4.63;;;21.30;99.90;;;;;;5018861;28;20445;-77
2021/07/14 13:32:57;;;;;;;4.90;3.90;;;21.40;99.90;;;;;;5017833;28;20421;-78
2021/07/14 13:35:24;;;;;;;0.40;0.30;;;21.60;99.90;;;;;;5018190;28;20440;-77
2021/07/14 13:37:52;;;;;;;0.60;0.60;;;21.80;99.90;;;;;;5017359;28;20886;-78
2021/07/14 13:40:24;;;;;;;0.40;0.30;;;21.80;99.90;;;;;;5017440;28;20456;-78
2021/07/14 13:42:52;;;;;;;0.40;0.33;;;21.90;99.90;;;;;;5017647;28;20518;-78
2021/07/14 13:45:31;;;;;;;3.30;3.03;;;22.00;99.90;;;;;;5016385;28;20449;-79
2021/07/14 13:47:59;;;;;;;0.57;0.57;;;22.10;99.90;;;;;;5028887;28;20536;-78
2021/07/14 13:50:26;;;;;;;0.40;0.30;;;22.10;99.90;;;;;;5036486;28;20452;-78
2021/07/14 13:52:58;;;;;;;0.40;0.30;;;22.10;99.90;;;;;;5037044;28;20424;-77
2021/07/14 13:55:25;;;;;;;4.03;3.80;;;22.10;99.90;;;;;;5036756;28;20444;-77
2021/07/14 13:57:52;;;;;;;0.40;0.30;;;22.10;99.90;;;;;;5036125;28;20445;-77
2021/07/14 14:00:19;;;;;;;3.53;3.20;;;22.20;99.90;;;;;;5037268;28;20440;-78
2021/07/14 14:02:57;;;;;;;0.50;0.30;;;22.50;99.90;;;;;;5036440;28;20481;-78
2021/07/14 14:05:24;;;;;;;1.20;1.10;;;22.60;99.90;;;;;;5036235;28;20469;-79
2021/07/14 14:07:51;;;;;;;0.40;0.30;;;22.70;99.90;;;;;;5036572;28;20837;-78
2021/07/14 14:10:21;;;;;;;1.47;1.37;;;22.70;99.90;;;;;;5037451;28;20447;-78
2021/07/14 14:12:49;;;;;;;0.40;0.30;;;22.50;99.90;;;;;;5037267;28;20442;-77
2021/07/14 14:15:18;;;;;;;2.10;1.07;;;22.40;99.90;;;;;;5035440;28;20447;-77
2021/07/14 14:17:46;;;;;;;1.90;1.73;;;22.10;99.90;;;;;;5024381;28;20955;-77
2021/07/14 14:20:14;;;;;;;0.40;0.30;;;22.00;99.90;;;;;;5035214;28;21152;-77
2021/07/14 14:22:41;;;;;;;1.33;1.30;;;21.80;99.90;;;;;;5039500;28;20469;-78
2021/07/14 14:25:13;;;;;;;0.97;0.93;;;21.60;99.90;;;;;;5039121;28;20442;-77
2021/07/14 14:27:49;;;;;;;3.80;2.20;;;21.60;99.90;;;;;;5037198;28;20486;-79
2021/07/14 14:30:19;;;;;;;0.50;0.50;;;21.50;99.90;;;;;;5029522;28;20526;-79
2021/07/14 14:32:45;;;;;;;0.50;0.40;;;21.40;99.90;;;;;;5018366;28;20443;-76
2021/07/14 14:35:12;;;;;;;0.67;0.67;;;21.30;99.90;;;;;;5016149;28;20823;-78
2021/07/14 14:37:39;;;;;;;4.80;1.83;;;21.30;99.90;;;;;;5032638;28;20433;-78
2021/07/14 14:40:07;;;;;;;0.50;0.30;;;21.30;99.90;;;;;;5039060;28;20436;-79
2021/07/14 14:42:33;;;;;;;0.60;0.57;;;21.30;99.90;;;;;;5039278;28;20846;-78
2021/07/14 14:45:01;;;;;;;3.37;1.73;;;21.30;99.90;;;;;;5039143;28;20438;-79
2021/07/14 14:47:28;;;;;;;0.40;0.30;;;21.30;99.90;;;;;;5030294;28;20468;-79
2021/07/14 14:49:55;;;;;;;2.70;1.97;;;21.20;99.90;;;;;;5037124;28;20507;-79
2021/07/14 14:52:21;;;;;;;0.67;0.67;;;21.20;99.90;;;;;;5036078;28;20444;-78
2021/07/14 14:54:48;;;;;;;1.17;0.70;;;21.20;99.90;;;;;;5038697;28;20957;-78
2021/07/14 14:57:15;;;;;;;0.40;0.30;;;21.20;99.90;;;;;;5035857;28;20460;-78
2021/07/14 14:59:41;;;;;;;1.60;1.50;;;21.10;99.90;;;;;;5035938;28;20453;-78
2021/07/14 15:02:09;;;;;;;0.50;0.30;;;21.10;99.90;;;;;;5016850;28;20440;-78
2021/07/14 15:04:36;;;;;;;13.37;7.17;;;21.10;99.90;;;;;;5017243;28;20439;-79